Time;durP1;ratioP1;P1;durP2;ratioP2;P2;SDS_P1;SDS_P2;PMS_P1;PMS_P2;Temp;Humidity;BMP_temperature;BMP_pressure;BME280_temperature;BME280_humidity;BME280_pressure;Samples;Min_cycle;Max_cycle;Signal;HPM_P1;HPM_P2
2024/01/31 00:01:18;;;;;;;3.47;1.20;;;;;;;5.24;100.00;102295.31;5095671;28;20031;-78
2024/01/31 00:03:46;;;;;;;4.70;1.55;;;;;;;5.19;100.00;102276.09;5078875;28;20031;-77
2024/01/31 00:06:13;;;;;;;2.30;1.08;;;;;;;5.18;100.00;102279.72;5078715;28;20123;-77
2024/01/31 00:08:42;;;;;;;3.38;1.48;;;;;;;5.17;100.00;102267.34;5095426;28;20103;-78
2024/01/31 00:11:08;;;;;;;5.40;1.60;;;;;;;5.15;100.00;102277.25;5079002;28;20467;-78
2024/01/31 00:13:34;;;;;;;2.50;1.25;;;;;;;5.13;100.00;102269.34;5078167;28;20094;-77
2024/01/31 00:15:59;;;;;;;5.13;1.42;;;;;;;5.08;100.00;102260.84;5078763;28;20120;-78
2024/01/31 00:18:25;;;;;;;4.57;1.40;;;;;;;5.03;100.00;102252.28;5078562;28;20035;-79
2024/01/31 00:20:51;;;;;;;3.65;1.40;;;;;;;5.00;100.00;102257.78;5078379;28;20479;-77
2024/01/31 00:23:19;;;;;;;3.20;1.33;;;;;;;4.96;100.00;102250.97;5078802;28;20437;-77
2024/01/31 00:25:45;;;;;;;1.40;1.15;;;;;;;5.02;100.00;102255.88;5079115;28;20038;-77
2024/01/31 00:28:12;;;;;;;5.10;1.40;;;;;;;5.08;100.00;102250.16;5078649;28;20472;-77
2024/01/31 00:30:38;;;;;;;2.42;1.30;;;;;;;5.14;100.00;102255.06;5112993;28;20062;-77
2024/01/31 00:33:04;;;;;;;3.13;1.35;;;;;;;5.23;100.00;102254.44;5082493;28;20472;-77
2024/01/31 00:35:30;;;;;;;2.70;1.02;;;;;;;5.27;100.00;102245.28;5099362;28;20043;-77
2024/01/31 00:37:56;;;;;;;4.22;1.55;;;;;;;5.26;100.00;102232.88;5082344;28;20023;-77
2024/01/31 00:40:22;;;;;;;1.83;1.23;;;;;;;5.26;100.00;102230.22;5082006;28;20074;-77
2024/01/31 00:42:47;;;;;;;1.90;1.10;;;;;;;5.23;100.00;102211.78;5115514;28;20036;-79
2024/01/31 00:45:14;;;;;;;2.60;1.20;;;;;;;5.19;100.00;102204.97;5082399;28;20151;-77
2024/01/31 00:47:43;;;;;;;1.30;1.00;;;;;;;5.11;100.00;102209.97;5099120;28;20467;-77
2024/01/31 00:50:12;;;;;;;3.00;1.23;;;;;;;5.01;100.00;102206.22;5065238;28;20085;-77
2024/01/31 00:52:40;;;;;;;1.90;1.17;;;;;;;4.98;100.00;102193.09;5081969;28;20070;-78
2024/01/31 00:55:06;;;;;;;3.58;1.13;;;;;;;5.04;100.00;102190.84;5115738;28;20027;-77
2024/01/31 00:57:32;;;;;;;5.95;1.15;;;;;;;5.21;100.00;102192.38;5098823;28;20035;-77
2024/01/31 00:59:57;;;;;;;4.55;1.52;;;;;;;5.29;100.00;102195.38;5098887;28;20036;-77
2024/01/31 01:02:23;;;;;;;4.72;1.60;;;;;;;5.38;100.00;102185.03;5081654;28;20386;-77
2024/01/31 01:04:49;;;;;;;6.53;1.35;;;;;;;5.42;100.00;102184.66;5081759;28;20063;-77
2024/01/31 01:07:14;;;;;;;3.50;1.30;;;;;;;5.42;100.00;102176.66;5081576;28;20031;-77
2024/01/31 01:09:40;;;;;;;2.80;1.00;;;;;;;5.43;100.00;102180.22;5081619;28;20036;-77
2024/01/31 01:12:06;;;;;;;3.72;1.10;;;;;;;5.43;100.00;102172.22;5081739;28;20038;-77
2024/01/31 01:14:31;;;;;;;3.97;1.15;;;;;;;5.48;100.00;102167.41;5081499;28;20490;-77
2024/01/31 01:16:57;;;;;;;4.35;1.17;;;;;;;5.46;100.00;102156.84;5081389;28;20031;-77
2024/01/31 01:19:23;;;;;;;3.03;1.15;;;;;;;5.46;100.00;102156.00;5078434;28;20055;-76
2024/01/31 01:21:50;;;;;;;1.40;0.90;;;;;;;5.41;100.00;102150.97;5114987;28;20039;-77
2024/01/31 01:24:16;;;;;;;5.25;1.10;;;;;;;5.39;100.00;102152.88;5081102;28;20028;-77
2024/01/31 01:26:41;;;;;;;2.80;1.33;;;;;;;5.32;100.00;102159.63;5081219;28;20028;-79
2024/01/31 01:29:07;;;;;;;2.30;0.85;;;;;;;5.29;100.00;102152.69;5081478;28;20034;-78
2024/01/31 01:31:33;;;;;;;2.72;0.82;;;;;;;5.28;100.00;102150.97;5081337;28;20032;-78
2024/01/31 01:33:59;;;;;;;2.97;0.90;;;;;;;5.26;100.00;102142.22;5081111;28;20475;-79
2024/01/31 01:36:25;;;;;;;2.42;0.90;;;;;;;5.25;100.00;102135.19;5081247;28;20027;-78
2024/01/31 01:38:51;;;;;;;2.05;1.10;;;;;;;5.28;100.00;102126.13;5097979;28;20035;-78
2024/01/31 01:41:17;;;;;;;3.45;0.95;;;;;;;5.35;100.00;102115.88;5080987;28;20536;-78
2024/01/31 01:43:43;;;;;;;2.55;1.23;;;;;;;5.43;100.00;102116.19;5079795;28;20042;-78
2024/01/31 01:46:29;;;;;;;2.53;0.90;;;;;;;5.50;100.00;102112.09;5114516;28;20035;-78
2024/01/31 01:48:58;;;;;;;1.77;0.75;;;;;;;5.54;100.00;102102.94;5086792;28;20031;-79
2024/01/31 01:51:25;;;;;;;2.60;1.00;;;;;;;5.53;100.00;102095.91;5097976;28;20036;-78
2024/01/31 01:53:51;;;;;;;3.78;1.25;;;;;;;5.56;100.00;102100.13;5080710;28;20051;-78
2024/01/31 01:56:18;;;;;;;1.48;0.90;;;;;;;5.57;100.00;102100.03;5080698;28;20072;-78
2024/01/31 01:58:47;;;;;;;2.53;0.90;;;;;;;5.61;100.00;102101.53;5097653;28;20494;-78
2024/01/31 02:01:13;;;;;;;2.28;0.95;;;;;;;5.64;100.00;102089.78;5098182;28;20024;-79
2024/01/31 02:03:41;;;;;;;2.05;0.70;;;;;;;5.67;100.00;102098.41;5080287;28;20047;-79
2024/01/31 02:06:06;;;;;;;2.35;1.10;;;;;;;5.69;100.00;102098.31;5063903;28;20031;-79
2024/01/31 02:08:32;;;;;;;2.33;1.00;;;;;;;5.66;100.00;102085.16;5080625;28;20031;-79
2024/01/31 02:10:58;;;;;;;1.80;1.02;;;;;;;5.55;100.00;102074.44;5113706;28;20088;-78
2024/01/31 02:13:24;;;;;;;1.17;0.90;;;;;;;5.41;100.00;102064.75;5080242;28;20083;-78
2024/01/31 02:15:56;;;;;;;3.10;0.93;;;;;;;5.30;100.00;102073.53;5097193;28;20119;-78
2024/01/31 02:18:29;;;;;;;2.33;0.88;;;;;;;5.27;100.00;102069.28;5096893;28;20482;-78
2024/01/31 02:20:55;;;;;;;1.90;1.00;;;;;;;5.27;100.00;102063.09;5097074;28;20028;-78
2024/01/31 02:23:21;;;;;;;2.22;0.95;;;;;;;5.28;100.00;102064.78;5079106;28;20051;-78
2024/01/31 02:25:48;;;;;;;6.78;1.15;;;;;;;5.35;100.00;102066.06;5080191;28;20043;-78
2024/01/31 02:28:14;;;;;;;2.63;1.00;;;;;;;5.41;100.00;102062.09;5096909;28;20047;-78
2024/01/31 02:30:40;;;;;;;2.53;0.88;;;;;;;5.48;100.00;102064.22;5096527;28;20528;-78
2024/01/31 02:33:05;;;;;;;2.85;0.80;;;;;;;5.58;100.00;102060.88;5096763;28;20051;-78
2024/01/31 02:35:35;;;;;;;2.28;0.80;;;;;;;5.64;100.00;102055.09;5096681;28;20070;-79
2024/01/31 02:38:01;;;;;;;2.92;0.80;;;;;;;5.62;100.00;102043.69;5096523;28;20027;-78
2024/01/31 02:40:28;;;;;;;0.95;0.80;;;;;;;5.56;100.00;102039.66;5079920;28;20032;-78
2024/01/31 02:42:54;;;;;;;2.72;0.75;;;;;;;5.48;100.00;102044.69;5079968;28;20118;-79
2024/01/31 02:45:20;;;;;;;2.15;0.80;;;;;;;5.40;100.00;102037.25;5079584;28;20111;-78
2024/01/31 02:47:45;;;;;;;2.15;0.90;;;;;;;5.34;100.00;102018.16;5079815;28;20126;-79
2024/01/31 02:50:11;;;;;;;4.78;1.00;;;;;;;5.32;100.00;102017.41;5079829;28;20035;-79
2024/01/31 02:52:37;;;;;;;1.35;0.80;;;;;;;5.30;100.00;102012.19;5079318;28;20403;-79
2024/01/31 02:55:04;;;;;;;1.02;0.70;;;;;;;5.34;100.00;102010.16;5079817;28;20118;-79
2024/01/31 02:57:30;;;;;;;2.47;0.70;;;;;;;5.33;100.00;102005.78;5079612;28;20074;-79
2024/01/31 02:59:55;;;;;;;1.45;0.77;;;;;;;5.44;100.00;102012.03;5079508;28;20051;-78
2024/01/31 03:02:21;;;;;;;3.17;1.10;;;;;;;5.54;100.00;102006.88;5079418;28;20040;-78
2024/01/31 03:04:47;;;;;;;2.03;0.90;;;;;;;5.63;100.00;101997.34;5078841;28;20057;-79
2024/01/31 03:07:13;;;;;;;2.05;1.20;;;;;;;5.68;100.00;102004.03;5079336;28;20032;-78
2024/01/31 03:09:39;;;;;;;1.60;0.77;;;;;;;5.76;100.00;102007.97;5095827;28;20118;-79
2024/01/31 03:12:08;;;;;;;1.65;0.68;;;;;;;5.80;100.00;102006.78;5079066;28;20479;-79
2024/01/31 03:14:34;;;;;;;1.85;0.75;;;;;;;5.78;100.00;101995.38;5096083;28;20387;-79
2024/01/31 03:17:00;;;;;;;3.17;1.08;;;;;;;5.81;100.00;101997.81;5079335;28;20035;-79
2024/01/31 03:19:28;;;;;;;2.65;0.80;;;;;;;5.82;100.00;102003.03;5079395;28;20039;-79
2024/01/31 03:21:53;;;;;;;4.72;0.93;;;;;;;5.86;100.00;102019.66;5079411;28;20127;-79
2024/01/31 03:24:19;;;;;;;0.77;0.70;;;;;;;5.87;100.00;102006.19;5079363;28;20130;-79
2024/01/31 03:26:45;;;;;;;2.47;1.00;;;;;;;5.82;100.00;101987.03;5095643;28;20028;-79
2024/01/31 03:29:11;;;;;;;3.83;0.90;;;;;;;5.78;100.00;101976.69;5079792;28;20032;-78
2024/01/31 03:31:38;;;;;;;2.08;0.93;;;;;;;5.71;100.00;101969.13;5096241;28;20032;-78
2024/01/31 03:34:06;;;;;;;3.75;1.00;;;;;;;5.67;100.00;101978.34;5079152;28;20038;-79
2024/01/31 03:36:33;;;;;;;1.77;0.70;;;;;;;5.68;100.00;101968.50;5096285;28;20506;-78
2024/01/31 03:38:59;;;;;;;1.85;0.82;;;;;;;5.69;100.00;101972.91;5112835;28;20072;-78
2024/01/31 03:41:26;;;;;;;1.95;0.80;;;;;;;5.66;100.00;101960.63;5079159;28;20034;-78
2024/01/31 03:43:51;;;;;;;4.05;0.90;;;;;;;5.64;100.00;101949.22;5079181;28;20035;-78
2024/01/31 03:46:17;;;;;;;2.80;0.80;;;;;;;5.65;100.00;101937.56;5078767;28;20387;-78
2024/01/31 03:48:43;;;;;;;2.50;1.00;;;;;;;5.67;100.00;101954.31;5079145;28;20066;-78
2024/01/31 03:51:19;;;;;;;3.92;1.33;;;;;;;5.73;100.00;101948.50;5062413;28;20047;-78
2024/01/31 03:53:50;;;;;;;2.70;1.00;;;;;;;5.70;100.00;101942.56;5112666;28;20048;-78
2024/01/31 03:56:16;;;;;;;1.90;0.85;;;;;;;5.67;100.00;101932.97;5095404;28;20038;-78
2024/01/31 03:58:43;;;;;;;3.72;1.10;;;;;;;5.68;100.00;101924.00;5095694;28;20032;-78
2024/01/31 04:01:09;;;;;;;3.88;1.00;;;;;;;5.76;100.00;101920.75;5112500;28;20032;-78
2024/01/31 04:03:36;;;;;;;1.38;0.60;;;;;;;5.81;100.00;101933.75;5095027;28;20379;-78
2024/01/31 04:06:02;;;;;;;1.30;0.80;;;;;;;5.82;100.00;101925.63;5096311;28;20036;-78
2024/01/31 04:08:28;;;;;;;5.78;1.70;;;;;;;5.87;100.00;101925.25;5099522;28;20032;-78
2024/01/31 04:10:54;;;;;;;3.75;0.90;;;;;;;5.94;100.00;101921.19;5082975;28;20120;-78
2024/01/31 04:13:19;;;;;;;1.95;1.20;;;;;;;6.00;100.00;101915.38;5082806;28;20028;-78
2024/01/31 04:15:46;;;;;;;3.28;1.30;;;;;;;6.03;100.00;101911.63;5098523;28;20028;-79
2024/01/31 04:18:11;;;;;;;1.42;0.88;;;;;;;6.03;100.00;101907.13;5099232;28;20035;-78
2024/01/31 04:20:38;;;;;;;3.42;1.40;;;;;;;6.07;100.00;101905.94;5115994;28;20028;-79
2024/01/31 04:23:04;;;;;;;1.67;0.80;;;;;;;6.11;100.00;101914.56;5082325;28;20031;-78
2024/01/31 04:25:30;;;;;;;1.67;0.88;;;;;;;6.15;100.00;101908.88;5081974;28;20031;-78
2024/01/31 04:27:55;;;;;;;3.65;0.80;;;;;;;6.15;100.00;101908.03;5083165;28;20375;-79
2024/01/31 04:30:21;;;;;;;2.78;0.82;;;;;;;6.14;100.00;101917.00;5082481;28;20467;-78
2024/01/31 04:32:47;;;;;;;3.30;1.20;;;;;;;6.11;100.00;101910.09;5099451;28;20059;-78
2024/01/31 04:35:12;;;;;;;2.38;0.90;;;;;;;6.11;100.00;101899.41;5082229;28;20027;-78
2024/01/31 04:37:38;;;;;;;3.63;1.33;;;;;;;6.09;100.00;101892.47;5082422;28;20035;-78
2024/01/31 04:40:04;;;;;;;1.73;0.80;;;;;;;6.03;100.00;101880.44;5082315;28;20119;-78
2024/01/31 04:42:31;;;;;;;1.75;0.90;;;;;;;5.96;100.00;101865.88;5082257;28;20119;-78
2024/01/31 04:44:57;;;;;;;2.58;0.82;;;;;;;5.95;100.00;101874.84;5082021;28;20138;-78
2024/01/31 04:47:25;;;;;;;3.33;0.70;;;;;;;5.91;100.00;101858.19;5098781;28;20522;-79
2024/01/31 04:49:58;;;;;;;2.30;1.10;;;;;;;5.92;100.00;101862.53;5082435;28;20074;-79
2024/01/31 04:52:25;;;;;;;2.80;0.80;;;;;;;5.97;100.00;101854.22;5115947;28;20035;-78
2024/01/31 04:54:51;;;;;;;2.60;0.80;;;;;;;6.00;100.00;101845.97;5098726;28;20039;-78
2024/01/31 04:57:17;;;;;;;3.25;1.00;;;;;;;6.01;100.00;101847.69;5081635;28;20436;-78
2024/01/31 04:59:43;;;;;;;1.35;0.88;;;;;;;6.02;100.00;101846.72;5081798;28;20406;-79
2024/01/31 05:02:09;;;;;;;4.97;1.17;;;;;;;6.07;100.00;101844.53;5081683;28;20036;-79
2024/01/31 05:04:39;;;;;;;4.78;1.65;;;;;;;6.09;100.00;101837.25;5081868;28;20038;-79
2024/01/31 05:07:05;;;;;;;4.93;0.98;;;;;;;6.11;100.00;101813.97;5081660;28;20163;-79
2024/01/31 05:09:31;;;;;;;6.25;1.00;;;;;;;6.11;100.00;101807.75;5081851;28;20429;-79
2024/01/31 05:11:56;;;;;;;3.95;1.00;;;;;;;6.08;100.00;101811.50;5081396;28;20118;-79
2024/01/31 05:14:22;;;;;;;2.75;1.30;;;;;;;6.08;100.00;101803.50;5098653;28;20031;-78
2024/01/31 05:16:48;;;;;;;3.10;0.75;;;;;;;6.05;100.00;101792.22;5114687;28;20582;-79
2024/01/31 05:19:14;;;;;;;4.18;1.30;;;;;;;6.05;100.00;101803.75;5096896;28;20475;-78
2024/01/31 05:21:50;;;;;;;3.28;0.90;;;;;;;6.07;100.00;101788.47;5098262;28;20383;-79
2024/01/31 05:24:17;;;;;;;4.78;1.35;;;;;;;6.05;100.00;101776.19;5115108;28;20525;-78
2024/01/31 05:26:43;;;;;;;2.92;1.10;;;;;;;6.04;100.00;101775.34;5115259;28;20028;-79
2024/01/31 05:29:09;;;;;;;6.57;1.38;;;;;;;6.02;100.00;101779.97;5081308;28;20126;-79
2024/01/31 05:31:35;;;;;;;3.45;0.70;;;;;;;6.09;100.00;101777.66;5114726;28;20039;-79
2024/01/31 05:34:01;;;;;;;2.38;0.85;;;;;;;6.14;100.00;101778.16;5081309;28;20031;-79
2024/01/31 05:36:27;;;;;;;3.97;0.90;;;;;;;6.21;100.00;101781.16;5081000;28;20024;-78
2024/01/31 05:38:53;;;;;;;4.53;1.02;;;;;;;6.22;100.00;101773.06;5081123;28;20070;-79
2024/01/31 05:41:19;;;;;;;2.83;0.70;;;;;;;6.24;100.00;101775.56;5081234;28;20036;-79
2024/01/31 05:43:48;;;;;;;1.90;1.00;;;;;;;6.22;100.00;101774.84;5080934;28;20063;-79
2024/01/31 05:46:18;;;;;;;1.80;0.73;;;;;;;6.22;100.00;101775.72;5097986;28;20020;-78
2024/01/31 05:48:47;;;;;;;2.78;0.93;;;;;;;6.22;100.00;101766.84;5081321;28;20043;-79
2024/01/31 05:51:14;;;;;;;2.17;0.88;;;;;;;6.28;100.00;101761.03;5080767;28;20032;-78
2024/01/31 05:53:40;;;;;;;2.72;1.25;;;;;;;6.31;100.00;101752.75;5097692;28;20035;-79
2024/01/31 05:56:06;;;;;;;4.28;1.10;;;;;;;6.33;100.00;101764.19;5097985;28;20035;-79
2024/01/31 05:58:33;;;;;;;2.65;0.98;;;;;;;6.36;100.00;101755.91;5097650;28;20410;-79
2024/01/31 06:00:59;;;;;;;3.90;1.38;;;;;;;6.42;100.00;101742.03;5114492;28;20040;-79
2024/01/31 06:03:27;;;;;;;5.03;1.00;;;;;;;6.47;100.00;101750.53;5080793;28;20028;-79
2024/01/31 06:05:52;;;;;;;4.47;1.95;;;;;;;6.51;100.00;101740.44;5081458;28;20027;-79
2024/01/31 06:08:18;;;;;;;2.60;0.80;;;;;;;6.50;100.00;101738.75;5079769;28;20384;-79
2024/01/31 06:10:46;;;;;;;3.55;0.93;;;;;;;6.50;100.00;101746.75;5080686;28;20024;-79
2024/01/31 06:13:12;;;;;;;1.48;0.77;;;;;;;6.38;100.00;101729.94;5080707;28;20509;-79
2024/01/31 06:15:37;;;;;;;3.33;1.30;;;;;;;6.15;100.00;101705.06;5080448;28;20031;-78
2024/01/31 06:18:03;;;;;;;5.20;0.95;;;;;;;5.94;100.00;101702.31;5080309;28;20040;-78
2024/01/31 06:20:29;;;;;;;2.63;1.10;;;;;;;5.84;100.00;101720.81;5080460;28;20147;-78
2024/01/31 06:22:55;;;;;;;5.20;1.50;;;;;;;5.78;100.00;101720.47;5080501;28;20031;-78
2024/01/31 06:25:20;;;;;;;3.88;0.90;;;;;;;5.79;100.00;101738.19;5080304;28;20384;-78
2024/01/31 06:27:47;;;;;;;2.63;1.02;;;;;;;5.70;100.00;101737.94;5080345;28;20475;-78
2024/01/31 06:30:19;;;;;;;2.35;0.82;;;;;;;5.66;100.00;101730.28;5113494;28;20020;-78
2024/01/31 06:32:47;;;;;;;1.30;1.05;;;;;;;5.62;100.00;101716.34;5097859;28;20035;-78
2024/01/31 06:35:14;;;;;;;3.78;0.80;;;;;;;5.67;100.00;101724.84;5113604;28;20035;-78
2024/01/31 06:37:39;;;;;;;4.45;1.08;;;;;;;5.69;100.00;101714.06;5080125;28;20031;-78
2024/01/31 06:40:08;;;;;;;3.38;0.88;;;;;;;5.74;100.00;101706.50;5080113;28;20027;-78
2024/01/31 06:42:34;;;;;;;1.65;0.75;;;;;;;5.75;100.00;101704.72;5096768;28;20038;-78
2024/01/31 06:45:00;;;;;;;3.35;0.98;;;;;;;5.80;100.00;101692.69;5079923;28;20117;-78
2024/01/31 06:47:25;;;;;;;2.70;0.95;;;;;;;5.86;100.00;101710.03;5079299;28;20032;-78
2024/01/31 06:49:51;;;;;;;3.50;1.25;;;;;;;5.97;100.00;101711.88;5097250;28;20031;-78
2024/01/31 06:52:17;;;;;;;5.38;1.10;;;;;;;6.05;100.00;101712.97;5096686;28;20452;-78
2024/01/31 06:54:42;;;;;;;3.85;1.23;;;;;;;6.12;100.00;101699.97;5096354;28;20459;-78
2024/01/31 06:57:08;;;;;;;3.75;1.02;;;;;;;6.22;100.00;101706.28;5079523;28;20101;-78
2024/01/31 06:59:34;;;;;;;6.15;1.15;;;;;;;6.32;100.00;101717.03;5079357;28;20035;-79
2024/01/31 07:01:59;;;;;;;6.97;1.48;;;;;;;6.43;100.00;101719.72;5096067;28;20031;-78
2024/01/31 07:04:25;;;;;;;6.85;1.17;;;;;;;6.51;100.00;101724.41;5079280;28;20028;-78
2024/01/31 07:06:51;;;;;;;4.20;0.90;;;;;;;6.58;100.00;101715.75;5079466;28;20028;-79
2024/01/31 07:09:17;;;;;;;3.50;0.85;;;;;;;6.67;100.00;101697.28;5079275;28;20387;-79
2024/01/31 07:11:43;;;;;;;2.63;1.10;;;;;;;6.72;100.00;101705.75;5079571;28;20032;-79
2024/01/31 07:14:08;;;;;;;3.55;1.13;;;;;;;6.75;100.00;101692.16;5079167;28;20428;-79
2024/01/31 07:16:35;;;;;;;3.40;1.17;;;;;;;6.77;100.00;101687.50;5078746;28;20038;-79
2024/01/31 07:19:02;;;;;;;5.47;1.58;;;;;;;6.79;100.00;101675.72;5095947;28;20047;-79
2024/01/31 07:21:28;;;;;;;3.30;1.45;;;;;;;6.82;100.00;101685.31;5078991;28;20100;-79
2024/01/31 07:23:54;;;;;;;5.00;1.20;;;;;;;6.85;100.00;101676.19;5078994;28;20050;-79
2024/01/31 07:26:23;;;;;;;5.20;1.38;;;;;;;6.86;100.00;101669.88;5078841;28;20031;-78
2024/01/31 07:28:50;;;;;;;3.42;1.00;;;;;;;6.90;100.00;101677.47;5096045;28;20039;-78
2024/01/31 07:31:17;;;;;;;2.67;1.00;;;;;;;6.91;100.00;101668.50;5096161;28;20043;-78
2024/01/31 07:33:42;;;;;;;4.15;1.10;;;;;;;6.93;100.00;101685.28;5095835;28;20035;-78
2024/01/31 07:36:08;;;;;;;8.75;1.45;;;;;;;6.91;100.00;101684.53;5078329;28;20036;-78
2024/01/31 07:38:34;;;;;;;2.58;0.90;;;;;;;6.94;100.00;101678.94;5079846;28;20482;-78
2024/01/31 07:40:59;;;;;;;5.43;1.23;;;;;;;6.98;100.00;101676.84;5078775;28;20379;-78
2024/01/31 07:43:25;;;;;;;4.35;1.10;;;;;;;7.02;100.00;101681.81;5079275;28;20027;-78
2024/01/31 07:45:51;;;;;;;4.50;1.30;;;;;;;7.05;100.00;101672.69;5078948;28;20495;-78
2024/01/31 07:48:17;;;;;;;3.70;1.08;;;;;;;7.05;100.00;101652.13;5079274;28;20088;-78
2024/01/31 07:50:43;;;;;;;4.90;2.50;;;;;;;7.04;100.00;101650.44;5078666;28;20510;-78
2024/01/31 07:53:08;;;;;;;2.50;1.00;;;;;;;7.05;100.00;101638.75;5079066;28;20032;-78
2024/01/31 07:55:34;;;;;;;3.95;1.10;;;;;;;7.01;100.00;101615.94;5112070;28;20078;-78
2024/01/31 07:58:01;;;;;;;4.60;1.10;;;;;;;6.98;100.00;101602.81;5078749;28;20036;-78
2024/01/31 08:00:27;;;;;;;3.95;1.00;;;;;;;6.90;100.00;101596.44;5078299;28;20067;-78
2024/01/31 08:02:52;;;;;;;4.82;1.15;;;;;;;6.80;100.00;101588.34;5112122;28;20128;-78
2024/01/31 08:05:18;;;;;;;8.43;1.55;;;;;;;6.79;100.00;101589.34;5078668;28;20036;-78
2024/01/31 08:07:47;;;;;;;2.50;1.02;;;;;;;6.83;100.00;101575.59;5095250;28;20024;-78
2024/01/31 08:10:12;;;;;;;7.00;2.55;;;;;;;6.90;100.00;101577.72;5095918;28;20034;-78
2024/01/31 08:12:42;;;;;;;4.53;1.13;;;;;;;6.94;100.00;101585.34;5078414;28;20031;-79
2024/01/31 08:15:08;;;;;;;1.65;0.85;;;;;;;7.00;100.00;101587.50;5079545;28;20039;-79
2024/01/31 08:17:34;;;;;;;12.95;1.80;;;;;;;7.09;100.00;101596.53;5112453;28;20043;-78
2024/01/31 08:20:00;;;;;;;4.22;1.00;;;;;;;7.14;100.00;101601.50;5078688;28;20032;-78
2024/01/31 08:22:26;;;;;;;2.95;1.40;;;;;;;7.19;100.00;101605.47;5078716;28;20468;-78
2024/01/31 08:24:51;;;;;;;3.33;1.40;;;;;;;7.25;100.00;101610.31;5078352;28;20043;-78
2024/01/31 08:27:18;;;;;;;6.45;2.47;;;;;;;7.29;100.00;101602.84;5094845;28;20101;-79
2024/01/31 08:29:45;;;;;;;4.38;1.33;;;;;;;7.33;100.00;101593.59;5095372;28;20024;-78
2024/01/31 08:32:10;;;;;;;1.95;1.40;;;;;;;7.39;100.00;101606.41;5078558;28;20068;-78
2024/01/31 08:34:37;;;;;;;4.25;1.05;;;;;;;7.42;100.00;101599.94;5078650;28;20032;-78
2024/01/31 08:37:03;;;;;;;3.22;1.30;;;;;;;7.49;100.00;101588.56;5094913;28;20444;-78
2024/01/31 08:39:31;;;;;;;5.85;1.42;;;;;;;7.53;100.00;101590.97;5094931;28;20027;-78
2024/01/31 08:41:57;;;;;;;5.25;1.42;;;;;;;7.61;100.00;101609.88;5078496;28;20387;-78
2024/01/31 08:44:22;;;;;;;4.57;1.33;;;;;;;7.64;100.00;101612.28;5078276;28;20027;-79
2024/01/31 08:46:48;;;;;;;5.53;1.27;;;;;;;7.68;100.00;101608.34;5077965;28;20023;-78
2024/01/31 08:49:14;;;;;;;3.80;1.20;;;;;;;7.73;100.00;101584.72;5078267;28;20072;-79
2024/01/31 08:51:40;;;;;;;4.43;1.35;;;;;;;7.80;100.00;101587.66;5078198;28;20031;-78
2024/01/31 08:54:06;;;;;;;7.30;1.55;;;;;;;7.89;100.00;101606.44;5098920;28;20049;-79
2024/01/31 08:56:33;;;;;;;5.65;1.08;;;;;;;7.93;100.00;101607.00;5081619;28;20088;-79
2024/01/31 08:58:59;;;;;;;6.65;1.70;;;;;;;8.00;100.00;101596.59;5098063;28;20043;-79
2024/01/31 09:01:25;;;;;;;6.28;1.45;;;;;;;8.04;100.00;101598.84;5097480;28;20130;-78
2024/01/31 09:03:55;;;;;;;3.28;1.52;;;;;;;8.06;100.00;101590.69;5099117;28;20031;-78
2024/01/31 09:06:22;;;;;;;2.50;1.00;;;;;;;8.10;100.00;101608.19;5081841;28;20032;-78
2024/01/31 09:08:48;;;;;;;3.17;1.20;;;;;;;8.13;100.00;101602.53;5098275;28;20023;-78
2024/01/31 09:11:14;;;;;;;2.45;1.02;;;;;;;8.19;100.00;101617.22;5081667;28;20036;-79
2024/01/31 09:13:41;;;;;;;7.47;2.00;;;;;;;8.20;100.00;101597.44;5098673;28;20031;-78
2024/01/31 09:16:08;;;;;;;5.22;1.27;;;;;;;8.21;100.00;101605.38;5097983;28;20042;-79
2024/01/31 09:18:34;;;;;;;2.13;0.93;;;;;;;8.18;100.00;101594.06;5081491;28;20043;-78
2024/01/31 09:21:00;;;;;;;2.85;0.95;;;;;;;8.25;100.00;101593.38;5081880;28;20126;-79
2024/01/31 09:23:26;;;;;;;6.20;1.42;;;;;;;8.25;100.00;101590.69;5081772;28;20035;-79
2024/01/31 09:25:51;;;;;;;6.18;1.77;;;;;;;8.27;100.00;101599.44;5081114;28;20032;-79
2024/01/31 09:28:17;;;;;;;5.65;1.25;;;;;;;8.29;100.00;101596.63;5081558;28;20040;-79
2024/01/31 09:30:44;;;;;;;6.05;1.25;;;;;;;8.31;100.00;101578.59;5081507;28;20034;-78
2024/01/31 09:33:10;;;;;;;7.13;1.70;;;;;;;8.35;100.00;101579.97;5114776;28;20051;-78
2024/01/31 09:35:36;;;;;;;4.25;1.30;;;;;;;8.37;100.00;101581.53;5081240;28;20479;-79
2024/01/31 09:38:03;;;;;;;5.22;1.20;;;;;;;8.44;100.00;101567.59;5098060;28;20031;-78
2024/01/31 09:40:29;;;;;;;7.13;1.48;;;;;;;8.54;100.00;101557.72;5080139;28;20527;-79
2024/01/31 09:42:55;;;;;;;2.30;0.95;;;;;;;8.72;100.00;101565.88;5097658;28;20072;-78
2024/01/31 09:45:22;;;;;;;4.47;1.45;;;;;;;8.87;100.00;101563.59;5081032;28;20460;-79
2024/01/31 09:47:47;;;;;;;5.43;1.35;;;;;;;8.94;100.00;101565.53;5080769;28;20035;-79
2024/01/31 09:50:13;;;;;;;6.00;1.10;;;;;;;9.07;100.00;101564.38;5080787;28;20032;-79
2024/01/31 09:52:40;;;;;;;4.93;0.93;;;;;;;9.15;100.00;101553.75;5080421;28;20046;-78
2024/01/31 09:55:11;;;;;;;5.15;1.20;;;;;;;9.20;100.00;101549.63;5097291;28;20027;-78
2024/01/31 09:57:41;;;;;;;5.07;1.77;;;;;;;9.25;100.00;101536.63;5097254;28;20043;-78
2024/01/31 10:00:08;;;;;;;3.78;1.40;;;;;;;9.30;100.00;101535.34;5098015;28;20036;-78
2024/01/31 10:02:36;;;;;;;5.95;1.30;;;;;;;9.38;100.00;101524.69;5097748;28;20486;-78
2024/01/31 10:05:03;;;;;;;6.90;1.17;;;;;;;9.43;100.00;101519.72;5080148;28;20028;-77
2024/01/31 10:07:30;;;;;;;1.73;1.00;;;;;;;9.46;100.00;101517.56;5114276;28;20069;-77
2024/01/31 10:09:56;;;;;;;4.25;1.20;;;;;;;9.45;100.00;101513.22;5080531;28;20027;-78
2024/01/31 10:12:22;;;;;;;5.38;1.15;;;;;;;9.42;100.00;101493.88;5097407;28;20367;-77
2024/01/31 10:14:51;;;;;;;4.70;1.23;;;;;;;9.44;100.00;101492.72;5080298;28;20399;-77
2024/01/31 10:17:20;;;;;;;5.30;1.17;;;;;;;9.43;100.00;101485.69;5080598;28;20039;-77
2024/01/31 10:19:46;;;;;;;4.05;1.40;;;;;;;9.42;100.00;101480.44;5097083;28;20161;-77
2024/01/31 10:22:11;;;;;;;7.28;1.50;;;;;;;9.45;100.00;101472.13;5080377;28;20060;-78
2024/01/31 10:24:40;;;;;;;7.95;2.20;;;;;;;9.53;100.00;101466.84;5080374;28;20063;-78
2024/01/31 10:27:08;;;;;;;5.18;1.40;;;;;;;9.60;100.00;101467.88;5080114;28;20105;-78
2024/01/31 10:29:37;;;;;;;6.97;1.50;;;;;;;9.70;100.00;101459.78;5080284;28;20039;-78
2024/01/31 10:32:03;;;;;;;4.97;1.67;;;;;;;9.77;100.00;101439.38;5080039;28;20036;-78
2024/01/31 10:34:29;;;;;;;4.85;1.33;;;;;;;9.89;100.00;101451.56;5096665;28;20043;-78
2024/01/31 10:36:56;;;;;;;5.65;1.52;;;;;;;9.89;100.00;101438.13;5113629;28;20028;-78
2024/01/31 10:39:22;;;;;;;6.25;1.48;;;;;;;9.91;100.00;101437.97;5063621;28;20055;-78
2024/01/31 10:41:48;;;;;;;2.80;1.38;;;;;;;9.87;100.00;101440.16;5097318;28;20071;-78
2024/01/31 10:44:14;;;;;;;12.50;3.55;;;;;;;9.86;100.00;101434.91;5080043;28;20059;-78
2024/01/31 10:46:42;;;;;;;12.00;3.25;;;;;;;9.86;100.00;101427.69;5113621;28;20093;-78
2024/01/31 10:49:08;;;;;;;5.65;2.30;;;;;;;9.94;100.00;101418.84;5097042;28;20040;-78
2024/01/31 10:51:34;;;;;;;7.07;2.38;;;;;;;10.10;100.00;101421.66;5079962;28;20027;-78
2024/01/31 10:54:01;;;;;;;5.10;2.25;;;;;;;10.26;100.00;101426.31;5113526;28;20036;-78
2024/01/31 10:56:27;;;;;;;8.38;1.80;;;;;;;10.42;100.00;101419.41;5079836;28;20479;-78
2024/01/31 10:58:56;;;;;;;5.88;1.63;;;;;;;10.54;100.00;101420.81;5096461;28;20039;-78
2024/01/31 11:01:23;;;;;;;7.75;1.70;;;;;;;10.61;100.00;101388.75;5080646;28;20407;-78
2024/01/31 11:03:48;;;;;;;4.88;1.58;;;;;;;10.74;100.00;101394.53;5079918;28;20032;-78
2024/01/31 11:06:14;;;;;;;5.50;1.50;;;;;;;10.82;100.00;101391.88;5096403;28;20035;-78
2024/01/31 11:08:41;;;;;;;5.75;1.40;;;;;;;10.85;100.00;101396.09;5079600;28;20035;-78
2024/01/31 11:11:11;;;;;;;7.60;1.42;;;;;;;10.88;100.00;101385.03;5113058;28;20077;-78
2024/01/31 11:13:37;;;;;;;5.63;1.55;;;;;;;10.98;100.00;101383.00;5096590;28;20035;-78
2024/01/31 11:16:04;;;;;;;3.97;1.40;;;;;;;11.14;100.00;101376.84;5112032;28;20502;-79
2024/01/31 11:18:31;;;;;;;2.00;0.95;;;;;;;11.22;100.00;101382.25;5079436;28;20035;-78
2024/01/31 11:20:58;;;;;;;3.58;1.20;;;;;;;11.34;100.00;101391.69;5113435;28;20058;-78